Time;durP1;ratioP1;P1;durP2;ratioP2;P2;SDS_P1;SDS_P2;PMS_P1;PMS_P2;Temp;Humidity;BMP_temperature;BMP_pressure;BME280_temperature;BME280_humidity;BME280_pressure;Samples;Min_cycle;Max_cycle;Signal;HPM_P1;HPM_P2
2022/03/05 07:05:02;;;;;;;12.27;7.13;;;;;;;;;;10594509;27;20484;-83
2022/03/05 07:10:12;;;;;;;14.07;8.43;;;;;;;;;;10593266;28;20090;-83
2022/03/05 07:15:14;;;;;;;16.02;9.73;;;;;;;;;;10592292;28;20039;-84
2022/03/05 07:20:18;;;;;;;13.05;8.40;;;;;;;;;;10590535;28;20091;-84
2022/03/05 07:25:20;;;;;;;15.60;10.02;;;;;;;;;;10590110;28;20020;-84
2022/03/05 07:30:22;;;;;;;;;;;;;;;;;;10589712;28;20032;-84
2022/03/05 07:35:24;;;;;;;14.45;9.10;;;;;;;;;;10589030;28;19949;-84
2022/03/05 07:40:25;;;;;;;13.77;9.27;;;;;;;;;;10590760;28;20028;-84
2022/03/05 07:45:26;;;;;;;;;;;;;;;;;;10590027;28;20493;-84
2022/03/05 07:50:28;;;;;;;16.45;10.77;;;;;;;;;;10590128;28;19908;-84
2022/03/05 07:55:35;;;;;;;;;;;;;;;;;;10591007;28;20050;-84
2022/03/05 08:00:36;;;;;;;15.75;9.93;;;;;;;;;;10588417;28;19941;-84
2022/03/05 08:05:37;;;;;;;;;;;;;;;;;;10588949;28;20024;-84
2022/03/05 08:10:57;;;;;;;15.38;10.52;;;;;;;;;;10585424;28;19908;-81
2022/03/05 08:15:58;;;;;;;16.45;10.98;;;;;;;;;;10559513;28;20036;-78
2022/03/05 08:20:59;;;;;;;;;;;;;;;;;;10559059;28;20081;-79
2022/03/05 08:26:00;;;;;;;14.32;10.27;;;;;;;;;;10559220;28;19904;-79
2022/03/05 08:31:01;;;;;;;;;;;;;;;;;;10557125;28;20127;-79
2022/03/05 08:36:02;;;;;;;16.58;10.73;;;;;;;;;;10558119;28;19908;-78
2022/03/05 08:41:03;;;;;;;;;;;;;;;;;;10573390;28;20036;-79
2022/03/05 08:46:05;;;;;;;16.02;9.95;;;;;;;;;;10565558;28;19911;-77
2022/03/05 08:51:06;;;;;;;14.85;10.60;;;;;;;;;;10555233;28;20043;-77
2022/03/05 08:56:07;;;;;;;;;;;;;;;;;;10548450;28;20054;-78
2022/03/05 09:01:08;;;;;;;17.02;10.50;;;;;;;;;;10551401;28;19912;-76
2022/03/05 09:06:09;;;;;;;;;;;;;;;;;;10554111;28;20388;-77
2022/03/05 09:11:11;;;;;;;15.00;10.05;;;;;;;;;;10548415;28;20297;-77
2022/03/05 09:16:13;;;;;;;16.00;11.13;;;;;;;;;;10551310;28;20032;-78
2022/03/05 09:21:17;;;;;;;20.15;13.88;;;;;;;;;;10554325;28;20028;-78
2022/03/05 09:26:21;;;;;;;20.80;13.85;;;;;;;;;;10553345;28;20020;-78
2022/03/05 09:31:22;;;;;;;17.38;12.13;;;;;;;;;;10557567;28;20482;-78
2022/03/05 09:36:23;;;;;;;11.32;8.15;;;;;;;;;;10559513;28;20039;-79
2022/03/05 09:41:36;;;;;;;14.63;10.40;;;;;;;;;;10556577;28;20020;-79
2022/03/05 09:46:45;;;;;;;16.60;10.40;;;;;;;;;;10564060;28;20438;-80
2022/03/05 09:52:10;;;;;;;16.95;11.13;;;;;;;;;;10557418;28;20090;-80
2022/03/05 09:57:12;;;;;;;15.48;10.27;;;;;;;;;;10542914;28;20048;-80
2022/03/05 10:02:14;;;;;;;15.75;10.70;;;;;;;;;;10542041;28;20401;-82
2022/03/05 10:07:16;;;;;;;15.07;10.63;;;;;;;;;;10541970;28;20024;-79
2022/03/05 10:12:50;;;;;;;14.40;10.40;;;;;;;;;;10557633;28;20115;-79
2022/03/05 10:18:12;;;;;;;16.80;12.15;;;;;;;;;;10562437;28;20020;-80
2022/03/05 10:23:16;;;;;;;18.50;11.82;;;;;;;;;;10554900;28;20035;-81
2022/03/05 10:28:18;;;;;;;14.88;10.68;;;;;;;;;;10557633;28;20091;-81
2022/03/05 10:33:31;;;;;;;14.70;10.55;;;;;;;;;;10555014;28;20047;-80
2022/03/05 10:38:57;;;;;;;16.33;10.65;;;;;;;;;;10554691;28;20020;-80
2022/03/05 10:44:33;;;;;;;13.93;9.80;;;;;;;;;;10559869;28;20509;-81
2022/03/05 10:49:39;;;;;;;15.70;10.80;;;;;;;;;;10556792;28;20390;-81
2022/03/05 10:54:43;;;;;;;15.18;9.40;;;;;;;;;;10562335;28;20024;-82
2022/03/05 11:00:02;;;;;;;17.58;11.18;;;;;;;;;;10563924;28;20161;-82
2022/03/05 11:05:24;;;;;;;13.90;10.40;;;;;;;;;;10551314;28;20047;-81
2022/03/05 11:10:33;;;;;;;14.93;9.50;;;;;;;;;;10550131;28;20474;-82
2022/03/05 11:15:34;;;;;;;17.00;10.82;;;;;;;;;;10553133;28;20073;-81
2022/03/05 11:20:35;;;;;;;15.85;10.50;;;;;;;;;;10551392;28;20091;-81
2022/03/05 11:25:36;;;;;;;15.88;10.63;;;;;;;;;;10549141;28;20020;-80
2022/03/05 11:36:40;;;;;;;15.38;10.05;;;;;;;;;;10576798;28;20016;-82
2022/03/05 11:42:25;;;;;;;13.23;9.52;;;;;;;;;;10572244;28;20046;-80
2022/03/05 11:47:55;;;;;;;11.75;8.40;;;;;;;;;;10565486;28;20044;-80
2022/03/05 11:58:55;;;;;;;12.40;9.13;;;;;;;;;;10574177;28;20032;-80
2022/03/05 12:04:35;;;;;;;13.32;8.88;;;;;;;;;;10455556;28;20235;-80
2022/03/05 12:21:07;;;;;;;15.75;8.68;;;;;;;;;;10475951;28;20167;-80
2022/03/05 12:26:52;;;;;;;12.05;8.98;;;;;;;;;;10481863;28;20029;-80
2022/03/05 12:32:12;;;;;;;12.18;8.68;;;;;;;;;;10468353;28;20045;-81
2022/03/05 12:43:20;;;;;;;12.30;8.55;;;;;;;;;;10358825;28;20039;-79
2022/03/05 12:48:42;;;;;;;11.95;8.75;;;;;;;;;;10329769;28;20094;-80
2022/03/05 12:53:43;;;;;;;14.23;9.93;;;;;;;;;;10392527;22;20092;-79
2022/03/05 12:58:44;;;;;;;10.60;7.68;;;;;;;;;;10379948;28;20026;-80
2022/03/05 13:03:45;;;;;;;10.63;7.15;;;;;;;;;;10380755;28;20121;-80
2022/03/05 13:08:46;;;;;;;13.07;10.43;;;;;;;;;;10379582;28;20030;-80
2022/03/05 13:13:48;;;;;;;12.73;9.40;;;;;;;;;;10380045;28;20030;-80
2022/03/05 13:19:00;;;;;;;11.68;9.02;;;;;;;;;;10380913;28;20112;-80
2022/03/05 13:24:05;;;;;;;12.63;9.63;;;;;;;;;;10378607;28;20033;-80
2022/03/05 13:29:07;;;;;;;9.63;7.38;;;;;;;;;;10378433;28;20030;-80
2022/03/05 13:34:08;;;;;;;12.88;8.98;;;;;;;;;;10380133;28;20424;-80
2022/03/05 13:39:11;;;;;;;14.18;10.15;;;;;;;;;;10378380;28;20415;-80
2022/03/05 13:44:24;;;;;;;9.63;7.10;;;;;;;;;;10380305;28;20025;-80
2022/03/05 13:49:26;;;;;;;8.05;6.13;;;;;;;;;;10380915;28;20053;-80
2022/03/05 13:54:34;;;;;;;10.80;8.35;;;;;;;;;;10391491;28;20038;-79
2022/03/05 13:59:39;;;;;;;12.38;9.55;;;;;;;;;;10393792;28;20026;-80
2022/03/05 14:05:04;;;;;;;14.63;10.90;;;;;;;;;;10391315;28;20116;-79
2022/03/05 14:10:05;;;;;;;13.10;10.05;;;;;;;;;;10380006;28;20042;-79
2022/03/05 14:15:10;;;;;;;8.02;6.63;;;;;;;;;;10380277;28;20022;-80
2022/03/05 14:20:11;;;;;;;15.30;11.20;;;;;;;;;;10378619;28;20176;-81
2022/03/05 14:25:14;;;;;;;12.30;9.15;;;;;;;;;;10378610;28;20401;-80
2022/03/05 14:30:15;;;;;;;13.77;10.40;;;;;;;;;;10378432;28;20472;-80
2022/03/05 14:35:16;;;;;;;14.10;10.88;;;;;;;;;;10377751;28;20037;-79
2022/03/05 14:40:19;;;;;;;9.40;6.80;;;;;;;;;;10378135;28;20022;-79
2022/03/05 14:45:24;;;;;;;10.25;7.35;;;;;;;;;;10378162;28;20058;-80
2022/03/05 14:50:26;;;;;;;9.35;7.30;;;;;;;;;;10376968;28;20037;-79
2022/03/05 14:55:27;;;;;;;8.85;7.00;;;;;;;;;;10377266;28;20033;-80
2022/03/05 15:00:28;;;;;;;11.15;8.15;;;;;;;;;;10377796;28;20026;-79
2022/03/05 15:05:30;;;;;;;8.10;6.43;;;;;;;;;;10377424;28;20033;-79
2022/03/05 15:10:38;;;;;;;9.80;7.32;;;;;;;;;;10376154;28;20034;-79
2022/03/05 15:15:39;;;;;;;8.70;6.60;;;;;;;;;;10375482;28;20041;-81
2022/03/05 15:20:42;;;;;;;7.80;6.30;;;;;;;;;;10376740;28;20464;-79
2022/03/05 15:25:44;;;;;;;10.98;7.97;;;;;;;;;;10381698;28;20026;-79
2022/03/05 15:30:46;;;;;;;13.15;9.95;;;;;;;;;;10383301;28;20033;-80
2022/03/05 15:35:56;;;;;;;11.57;8.23;;;;;;;;;;10385962;28;20025;-79
2022/03/05 15:40:57;;;;;;;8.20;6.33;;;;;;;;;;10384742;28;20050;-79
2022/03/05 15:45:58;;;;;;;14.05;10.43;;;;;;;;;;10385426;28;20029;-79
2022/03/05 15:50:59;;;;;;;12.32;9.40;;;;;;;;;;10383322;28;20069;-79
2022/03/05 15:56:03;;;;;;;12.77;8.85;;;;;;;;;;10382777;28;20096;-80
2022/03/05 16:01:08;;;;;;;9.02;6.68;;;;;;;;;;10382859;28;20033;-79
2022/03/05 16:06:09;;;;;;;9.73;6.95;;;;;;;;;;10383364;28;20034;-79
2022/03/05 16:11:10;;;;;;;13.20;9.63;;;;;;;;;;10382773;28;20034;-79
2022/03/05 16:16:11;;;;;;;12.00;9.27;;;;;;;;;;10382679;28;20068;-80
2022/03/05 16:21:13;;;;;;;11.40;8.43;;;;;;;;;;10381737;28;20082;-80
2022/03/05 16:26:14;;;;;;;12.02;8.13;;;;;;;;;;10382956;28;20022;-79
2022/03/05 16:31:15;;;;;;;7.65;5.97;;;;;;;;;;10383774;28;20022;-79
2022/03/05 16:36:16;;;;;;;7.30;5.63;;;;;;;;;;10381539;28;20037;-79
2022/03/05 16:41:18;;;;;;;8.07;6.10;;;;;;;;;;10382859;28;20061;-79
2022/03/05 16:46:19;;;;;;;13.88;8.95;;;;;;;;;;10383765;28;20048;-81
2022/03/05 16:51:21;;;;;;;14.45;11.10;;;;;;;;;;10382305;28;20438;-79
2022/03/05 16:56:22;;;;;;;8.55;6.00;;;;;;;;;;10381228;28;20475;-78
2022/03/05 17:01:23;;;;;;;10.13;7.35;;;;;;;;;;10381901;28;20026;-78
2022/03/05 17:06:24;;;;;;;8.02;5.82;;;;;;;;;;10380360;28;20026;-79
2022/03/05 17:11:25;;;;;;;8.40;6.40;;;;;;;;;;10381654;28;20356;-79
2022/03/05 17:16:26;;;;;;;7.43;5.68;;;;;;;;;;10381787;28;20510;-79
2022/03/05 17:21:27;;;;;;;7.25;4.93;;;;;;;;;;10380155;28;20026;-79
2022/03/05 17:26:28;;;;;;;10.05;7.55;;;;;;;;;;10384195;28;20125;-83
2022/03/05 17:31:29;;;;;;;9.93;6.80;;;;;;;;;;10381964;28;20032;-80
2022/03/05 17:36:30;;;;;;;12.27;8.90;;;;;;;;;;10381770;28;20452;-79
2022/03/05 17:41:31;;;;;;;12.30;9.05;;;;;;;;;;10382648;28;20030;-79
2022/03/05 17:46:32;;;;;;;11.35;8.30;;;;;;;;;;10379212;28;20365;-80
2022/03/05 17:51:36;;;;;;;11.25;8.77;;;;;;;;;;10379705;28;20034;-79
2022/03/05 17:56:37;;;;;;;10.80;7.22;;;;;;;;;;10381521;28;20088;-79
2022/03/05 18:01:39;;;;;;;13.48;9.27;;;;;;;;;;10379271;28;20061;-79
2022/03/05 18:06:40;;;;;;;13.95;10.75;;;;;;;;;;10380674;28;20552;-78
2022/03/05 18:11:41;;;;;;;10.05;8.05;;;;;;;;;;10380004;28;20033;-79
2022/03/05 18:16:42;;;;;;;8.48;6.60;;;;;;;;;;10382846;28;20029;-79
2022/03/05 18:21:43;;;;;;;14.77;10.77;;;;;;;;;;10384868;28;20065;-78
2022/03/05 18:26:44;;;;;;;10.02;7.10;;;;;;;;;;10385235;28;20468;-78
2022/03/05 18:31:45;;;;;;;;;;;;;;;;;;10388557;28;20056;-78
2022/03/05 18:36:46;;;;;;;15.27;12.02;;;;;;;;;;10385452;28;19906;-79
2022/03/05 18:41:48;;;;;;;9.57;7.35;;;;;;;;;;10391456;28;20365;-79
2022/03/05 18:46:49;;;;;;;9.90;8.43;;;;;;;;;;10392435;28;20128;-79
2022/03/05 18:51:50;;;;;;;9.20;7.35;;;;;;;;;;10385700;28;20046;-79
2022/03/05 18:56:51;;;;;;;10.38;7.82;;;;;;;;;;10389185;28;20022;-78
2022/03/05 19:01:52;;;;;;;8.10;6.50;;;;;;;;;;10391199;28;20026;-79
2022/03/05 19:06:53;;;;;;;9.43;7.50;;;;;;;;;;10396526;28;20034;-78
2022/03/05 19:11:54;;;;;;;11.73;8.38;;;;;;;;;;10390268;28;20029;-78
2022/03/05 19:16:56;;;;;;;8.40;6.25;;;;;;;;;;10389002;28;20484;-78
2022/03/05 19:21:59;;;;;;;10.25;7.50;;;;;;;;;;10386735;28;20080;-79
2022/03/05 19:27:00;;;;;;;14.80;10.00;;;;;;;;;;10384844;28;20025;-80
2022/03/05 19:32:01;;;;;;;15.70;11.98;;;;;;;;;;10385543;28;20033;-78
2022/03/05 19:37:02;;;;;;;13.48;10.70;;;;;;;;;;10384935;28;20423;-78
2022/03/05 19:42:04;;;;;;;10.35;8.25;;;;;;;;;;10382472;28;20034;-78
2022/03/05 19:47:06;;;;;;;10.82;8.00;;;;;;;;;;10383869;28;20022;-81
2022/03/05 19:52:07;;;;;;;8.48;6.75;;;;;;;;;;10384413;28;20094;-78
2022/03/05 19:57:08;;;;;;;10.38;7.80;;;;;;;;;;10386316;28;20030;-81
2022/03/05 20:02:09;;;;;;;13.55;10.07;;;;;;;;;;10386353;28;20026;-80
2022/03/05 20:07:10;;;;;;;9.02;7.40;;;;;;;;;;10383741;28;20089;-80
2022/03/05 20:12:11;;;;;;;11.07;7.95;;;;;;;;;;10392105;28;20423;-78
2022/03/05 20:17:12;;;;;;;10.70;8.38;;;;;;;;;;10392011;28;20036;-80
2022/03/05 20:22:13;;;;;;;12.18;9.30;;;;;;;;;;10391371;28;20084;-78
2022/03/05 20:27:15;;;;;;;;;;;;;;;;;;10393423;28;20113;-80
